HOP55RH / F-GUBE 7700 Squawk Report (22nd of June, 2019)

Time Lat Lon Altitude Heading Speed Vertical Rate
2019-06-22 14:37:39 GMT 44.328869 5.335901 31,000 131 481 0
2019-06-22 14:37:28 GMT 44.344990 5.310248 31,000 128 480 0
2019-06-22 14:37:18 GMT 44.359692 5.286654 31,000 117 496 0
We lost coverage of the aircraft here for a total of 11 minutes
2019-06-22 14:25:55 GMT 45.306843 3.615482 31,000 117 496 0
2019-06-22 14:25:44 GMT 45.318325 3.583654 31,000 114 444 1792
2019-06-22 14:23:04 GMT 45.487347 3.118451 31,000 114 444 1792
We lost coverage of the aircraft here for a total of 13 minutes
2019-06-22 14:10:15 GMT 46.265282 0.864118 32,000 114 444 1792
2019-06-22 14:08:03 GMT 46.382854 0.504754 31,900 114 444 1792
2019-06-22 14:04:56 GMT 46.535480 0.031723 28,325 114 362 1792
2019-06-22 14:04:49 GMT 46.535480 0.031723 28,125 114 362 1792
2019-06-22 14:04:34 GMT 46.546280 -0.001991 27,925 114 362 1792
2019-06-22 14:04:26 GMT 46.552284 -0.019707 27,700 114 362 1792
2019-06-22 14:04:17 GMT 46.559082 -0.041405 27,375 114 362 1792
2019-06-22 14:04:08 GMT 46.564899 -0.058708 27,075 114 362 1792
2019-06-22 14:03:53 GMT 46.574303 -0.089195 26,750 114 362 1792
2019-06-22 14:03:47 GMT 46.578491 -0.102310 26,450 114 362 1792
2019-06-22 14:03:33 GMT 46.588596 -0.133209 25,975 114 362 1792
2019-06-22 14:03:20 GMT 46.598091 -0.163696 25,125 114 362 1792
2019-06-22 14:03:13 GMT 46.603817 -0.181480 25,325 114 362 1792
2019-06-22 14:02:58 GMT 46.614384 -0.214577 25,100 114 362 1792
2019-06-22 14:02:52 GMT 46.617924 -0.225906 24,675 114 362 1792
2019-06-22 14:02:45 GMT 46.623508 -0.243484 24,175 114 362 1792
2019-06-22 14:02:32 GMT 46.632587 -0.272186 24,050 114 353 2496
2019-06-22 14:02:18 GMT 46.640781 -0.299034 23,650 114 353 2496
2019-06-22 14:02:10 GMT 46.647205 -0.318878 23,425 114 353 2496
2019-06-22 14:01:57 GMT 46.664616 -0.373878 23,050 114 353 2496
2019-06-22 14:01:45 GMT 46.664616 -0.373878 22,800 114 353 2496
2019-06-22 14:01:40 GMT 46.668106 -0.384109 22,550 114 353 2496
2019-06-22 14:01:25 GMT 46.678207 -0.415901 22,275 114 353 2496
2019-06-22 14:01:19 GMT 46.682304 -0.429222 21,925 114 353 2496
2019-06-22 14:01:08 GMT 46.689381 -0.452568 21,675 114 368 1600
2019-06-22 14:00:55 GMT 46.706001 -0.505234 21,325 114 368 1600
2019-06-22 14:00:44 GMT 46.706001 -0.505234 20,875 114 368 1600
2019-06-22 13:59:57 GMT 46.738586 -0.611320 19,225 114 368 1600
2019-06-22 13:59:51 GMT 46.741894 -0.622375 18,800 114 368 1600
2019-06-22 13:59:40 GMT 46.749481 -0.647301 18,525 114 368 1600
2019-06-22 13:59:32 GMT 46.755905 -0.667625 17,975 114 368 1600
2019-06-22 13:59:20 GMT 46.763119 -0.692825 17,875 117 362 1280
2019-06-22 13:59:07 GMT 46.773502 -0.723587 17,550 118 340 1920
2019-06-22 13:58:55 GMT 46.783321 -0.749405 17,150 118 340 1920
2019-06-22 13:58:42 GMT 46.792496 -0.774811 17,000 118 340 1920
2019-06-22 13:58:28 GMT 46.804691 -0.806602 16,750 118 340 1920
2019-06-22 13:58:23 GMT 46.808601 -0.816696 16,200 118 340 1920
2019-06-22 13:58:10 GMT 46.818516 -0.843269 16,175 118 340 1920
2019-06-22 13:57:55 GMT 46.830620 -0.876022 15,900 118 340 1920
2019-06-22 13:57:48 GMT 46.836720 -0.892227 15,650 118 340 1920
2019-06-22 13:57:32 GMT 46.848591 -0.925392 14,550 118 340 1920
2019-06-22 13:57:27 GMT 46.851707 -0.933701 14,900 118 340 1920
2019-06-22 13:57:19 GMT 46.858414 -0.952103 14,450 118 340 1920
2019-06-22 13:57:02 GMT 46.879406 -1.009122 14,225 118 323 1536
2019-06-22 13:56:49 GMT 46.885319 -1.024827 13,850 118 323 1536
2019-06-22 13:56:42 GMT 46.885319 -1.024827 13,525 118 323 1536
2019-06-22 13:56:32 GMT 46.892487 -1.044335 13,350 118 323 1536
2019-06-22 13:56:24 GMT 46.907291 -1.084477 13,025 118 301 1984
2019-06-22 13:56:11 GMT 46.907291 -1.084477 12,700 118 301 1984
2019-06-22 13:55:57 GMT 46.918278 -1.114690 12,425 118 301 1984
2019-06-22 13:55:47 GMT 46.924610 -1.131169 11,950 118 301 1984
2019-06-22 13:55:41 GMT 46.939693 -1.172791 11,825 117 306 1536
2019-06-22 13:55:25 GMT 46.939693 -1.172791 11,525 117 306 1536
2019-06-22 13:55:20 GMT 46.951611 -1.203989 11,250 117 306 1536
2019-06-22 13:55:09 GMT 46.951611 -1.203989 11,000 117 306 1536
We lost coverage of the aircraft here for a total of 153 minutes
2019-06-22 11:21:56 GMT 46.515087 0.151817 25,575 117 370 2176
2019-06-22 11:21:48 GMT 46.524494 0.138016 26,225 117 370 2176
2019-06-22 11:21:41 GMT 46.531895 0.122704 26,550 117 370 2176
2019-06-22 11:21:29 GMT 46.544090 0.092766 26,850 117 370 2176
2019-06-22 11:21:23 GMT 46.547302 0.083908 27,300 117 370 2176
2019-06-22 11:21:12 GMT 46.556614 0.056580 27,650 117 370 2176
2019-06-22 11:20:56 GMT 46.568390 0.024033 28,000 117 370 2176
2019-06-22 11:20:50 GMT 46.573185 0.010780 28,100 117 370 2176
2019-06-22 11:20:37 GMT 46.583614 -0.017303 27,950 117 370 2176
2019-06-22 11:20:30 GMT 46.588779 -0.032272 27,600 117 370 2176
2019-06-22 11:20:16 GMT 46.600185 -0.062004 27,325 117 370 2176
2019-06-22 11:20:05 GMT 46.609684 -0.087479 26,950 117 370 2176
2019-06-22 11:19:59 GMT 46.626301 -0.133003 26,700 117 370 2176
2019-06-22 11:19:43 GMT 46.626301 -0.133003 26,325 117 370 2176
2019-06-22 11:19:37 GMT 46.631004 -0.146187 25,950 117 370 2176
2019-06-22 11:19:25 GMT 46.640686 -0.172623 25,525 117 369 1792
2019-06-22 11:19:15 GMT 46.649998 -0.197067 25,100 117 369 1792
2019-06-22 11:18:58 GMT 46.661495 -0.233116 24,725 118 366 1728
2019-06-22 11:18:51 GMT 46.667919 -0.250694 24,375 118 366 1728
2019-06-22 11:18:47 GMT 46.670807 -0.260101 24,000 119 365 1792
2019-06-22 11:18:33 GMT 46.682117 -0.290314 23,825
2019-06-22 11:18:21 GMT 46.691383 -0.316818 23,600
2019-06-22 11:18:12 GMT 46.699203 -0.335907 23,175
2019-06-22 11:18:02 GMT 46.708607 -0.358772 22,875
2019-06-22 11:17:48 GMT 46.719685 -0.386032 22,500
2019-06-22 11:17:42 GMT 46.724388 -0.396332 22,225
2019-06-22 11:17:30 GMT 46.734818 -0.422012 21,800
2019-06-22 11:17:15 GMT 46.752876 -0.468704 21,375
2019-06-22 11:17:08 GMT 46.752876 -0.468704 21,175
2019-06-22 11:16:36 GMT 46.773220 -0.544167 19,975
2019-06-22 11:16:26 GMT 46.770802 -0.567581 19,575

Making use of Plane Finder data

You are free to use the raw flight data, aircraft information and images provided in this report for your own purposes provided the data is correctly attributed to Plane Finder. We ask that you please credit Plane Finder and link to planefinder.net in close proximity to the content.

Optionally one of the following logos (no smaller then 150x24px) can be used and must link to planefinder.net

Embedding the Plane Finder map

You are welcome to embed the Plane Finder playback map on your website to offer visitors a more interactive experience. We suggest using the following HTML code:

<iframe src="//planefinder.net/data/report/HOP55RH-F-GUBE-7700-squawk-2019-06-22/map" width="800" height="600" seamless="seamless"></iframe>

Where our data comes from

Plane Finder has a global network of data feeds and antenna radars that receive data broadcast directly from aircraft. The primary technologies used are ADS-B and MLAT. We also show feeds from the FAA and a FLARM glider feed.

Click here to find out more about the Plane Finder network.

How we collect our data